sensor_id;sensor_type;location;lat;lon;timestamp;temperature;humidity
2967;DHT22;1493;51.496;7.210;2022-08-21T00:00:05;19.00;99.90
2967;DHT22;1493;51.496;7.210;2022-08-21T00:02:33;19.00;99.90
2967;DHT22;1493;51.496;7.210;2022-08-21T00:05:00;19.00;99.90
2967;DHT22;1493;51.496;7.210;2022-08-21T00:07:27;19.00;99.90
2967;DHT22;1493;51.496;7.210;2022-08-21T00:09:54;19.00;99.90
2967;DHT22;1493;51.496;7.210;2022-08-21T00:12:22;19.00;99.90
2967;DHT22;1493;51.496;7.210;2022-08-21T00:14:49;19.00;99.90
2967;DHT22;1493;51.496;7.210;2022-08-21T00:17:16;19.00;99.90
2967;DHT22;1493;51.496;7.210;2022-08-21T00:19:43;19.00;99.90
2967;DHT22;1493;51.496;7.210;2022-08-21T00:22:10;19.00;99.90
2967;DHT22;1493;51.496;7.210;2022-08-21T00:24:37;18.90;99.90
2967;DHT22;1493;51.496;7.210;2022-08-21T00:27:04;18.90;99.90
2967;DHT22;1493;51.496;7.210;2022-08-21T00:29:32;18.90;99.90
2967;DHT22;1493;51.496;7.210;2022-08-21T00:31:59;18.80;99.90
2967;DHT22;1493;51.496;7.210;2022-08-21T00:34:26;18.80;99.90
2967;DHT22;1493;51.496;7.210;2022-08-21T00:36:53;18.80;99.90
2967;DHT22;1493;51.496;7.210;2022-08-21T00:39:20;18.70;99.90
2967;DHT22;1493;51.496;7.210;2022-08-21T00:41:46;18.70;99.90
2967;DHT22;1493;51.496;7.210;2022-08-21T00:44:16;18.60;99.90
2967;DHT22;1493;51.496;7.210;2022-08-21T00:46:45;18.60;99.90
2967;DHT22;1493;51.496;7.210;2022-08-21T00:49:12;18.50;99.90
2967;DHT22;1493;51.496;7.210;2022-08-21T00:51:43;18.50;99.90
2967;DHT22;1493;51.496;7.210;2022-08-21T00:54:13;18.40;99.90
2967;DHT22;1493;51.496;7.210;2022-08-21T00:56:40;18.40;99.90
2967;DHT22;1493;51.496;7.210;2022-08-21T00:59:07;18.40;99.90
2967;DHT22;1493;51.496;7.210;2022-08-21T01:01:34;18.40;99.90
2967;DHT22;1493;51.496;7.210;2022-08-21T01:04:03;18.40;99.90
2967;DHT22;1493;51.496;7.210;2022-08-21T01:06:29;18.40;99.90
2967;DHT22;1493;51.496;7.210;2022-08-21T01:08:57;18.40;99.90
2967;DHT22;1493;51.496;7.210;2022-08-21T01:11:24;18.40;99.90
2967;DHT22;1493;51.496;7.210;2022-08-21T01:13:51;18.40;99.90
2967;DHT22;1493;51.496;7.210;2022-08-21T01:16:20;18.40;99.90
2967;DHT22;1493;51.496;7.210;2022-08-21T01:18:48;18.50;99.90
2967;DHT22;1493;51.496;7.210;2022-08-21T01:21:19;18.40;99.90
2967;DHT22;1493;51.496;7.210;2022-08-21T01:23:49;18.50;99.90
2967;DHT22;1493;51.496;7.210;2022-08-21T01:26:18;18.50;99.90
2967;DHT22;1493;51.496;7.210;2022-08-21T01:28:51;18.50;99.90
2967;DHT22;1493;51.496;7.210;2022-08-21T01:31:19;18.50;99.90
2967;DHT22;1493;51.496;7.210;2022-08-21T01:33:48;18.50;99.90
2967;DHT22;1493;51.496;7.210;2022-08-21T01:36:17;18.40;99.90
2967;DHT22;1493;51.496;7.210;2022-08-21T01:38:44;18.40;99.90
2967;DHT22;1493;51.496;7.210;2022-08-21T01:41:11;18.40;99.90
2967;DHT22;1493;51.496;7.210;2022-08-21T01:43:38;18.40;99.90
2967;DHT22;1493;51.496;7.210;2022-08-21T01:46:05;18.40;99.90
2967;DHT22;1493;51.496;7.210;2022-08-21T01:48:33;18.40;99.90
2967;DHT22;1493;51.496;7.210;2022-08-21T01:51:00;18.30;99.90
2967;DHT22;1493;51.496;7.210;2022-08-21T01:53:28;18.30;99.90
2967;DHT22;1493;51.496;7.210;2022-08-21T01:55:55;18.30;99.90
2967;DHT22;1493;51.496;7.210;2022-08-21T01:58:22;18.20;99.90
2967;DHT22;1493;51.496;7.210;2022-08-21T02:00:49;18.20;99.90
2967;DHT22;1493;51.496;7.210;2022-08-21T02:03:16;18.10;99.90
2967;DHT22;1493;51.496;7.210;2022-08-21T02:05:43;18.10;99.90
2967;DHT22;1493;51.496;7.210;2022-08-21T02:08:09;18.10;99.90
2967;DHT22;1493;51.496;7.210;2022-08-21T02:10:38;18.00;99.90
2967;DHT22;1493;51.496;7.210;2022-08-21T02:13:06;18.00;99.90
2967;DHT22;1493;51.496;7.210;2022-08-21T02:15:34;18.00;99.90
2967;DHT22;1493;51.496;7.210;2022-08-21T02:18:04;17.90;99.90
2967;DHT22;1493;51.496;7.210;2022-08-21T02:20:33;17.90;99.90
2967;DHT22;1493;51.496;7.210;2022-08-21T02:23:01;17.80;99.90
2967;DHT22;1493;51.496;7.210;2022-08-21T02:25:29;17.80;99.90
2967;DHT22;1493;51.496;7.210;2022-08-21T02:27:58;17.70;99.90
2967;DHT22;1493;51.496;7.210;2022-08-21T02:30:28;17.70;99.90
2967;DHT22;1493;51.496;7.210;2022-08-21T02:32:56;17.70;99.90
2967;DHT22;1493;51.496;7.210;2022-08-21T02:35:23;17.60;99.90
2967;DHT22;1493;51.496;7.210;2022-08-21T02:37:53;17.60;99.90
2967;DHT22;1493;51.496;7.210;2022-08-21T02:40:22;17.60;99.90
2967;DHT22;1493;51.496;7.210;2022-08-21T02:42:50;17.50;99.90
2967;DHT22;1493;51.496;7.210;2022-08-21T02:45:19;17.50;99.90
2967;DHT22;1493;51.496;7.210;2022-08-21T02:47:49;17.50;99.90
2967;DHT22;1493;51.496;7.210;2022-08-21T02:50:20;17.50;99.90
2967;DHT22;1493;51.496;7.210;2022-08-21T02:52:47;17.50;99.90
2967;DHT22;1493;51.496;7.210;2022-08-21T02:55:15;17.50;99.90
2967;DHT22;1493;51.496;7.210;2022-08-21T02:57:41;17.40;99.90
2967;DHT22;1493;51.496;7.210;2022-08-21T03:00:09;17.40;99.90
2967;DHT22;1493;51.496;7.210;2022-08-21T03:02:38;17.40;99.90
2967;DHT22;1493;51.496;7.210;2022-08-21T03:05:06;17.40;99.90
2967;DHT22;1493;51.496;7.210;2022-08-21T03:07:35;17.40;99.90
2967;DHT22;1493;51.496;7.210;2022-08-21T03:10:02;17.30;99.90
2967;DHT22;1493;51.496;7.210;2022-08-21T03:12:29;17.30;99.90
2967;DHT22;1493;51.496;7.210;2022-08-21T03:14:56;17.30;99.90
2967;DHT22;1493;51.496;7.210;2022-08-21T03:17:23;17.30;99.90
2967;DHT22;1493;51.496;7.210;2022-08-21T03:19:51;17.30;99.90
2967;DHT22;1493;51.496;7.210;2022-08-21T03:22:18;17.30;99.90
2967;DHT22;1493;51.496;7.210;2022-08-21T03:24:45;17.30;99.90
2967;DHT22;1493;51.496;7.210;2022-08-21T03:27:11;17.20;99.90
2967;DHT22;1493;51.496;7.210;2022-08-21T03:29:39;17.20;99.90
2967;DHT22;1493;51.496;7.210;2022-08-21T03:32:06;17.20;99.90
2967;DHT22;1493;51.496;7.210;2022-08-21T03:34:34;17.20;99.90
2967;DHT22;1493;51.496;7.210;2022-08-21T03:37:03;17.20;99.90
2967;DHT22;1493;51.496;7.210;2022-08-21T03:39:30;17.10;99.90
2967;DHT22;1493;51.496;7.210;2022-08-21T03:41:57;17.10;99.90
2967;DHT22;1493;51.496;7.210;2022-08-21T03:44:25;17.10;99.90
2967;DHT22;1493;51.496;7.210;2022-08-21T03:46:54;17.10;99.90
2967;DHT22;1493;51.496;7.210;2022-08-21T03:49:21;17.10;99.90
2967;DHT22;1493;51.496;7.210;2022-08-21T03:51:48;17.10;99.90
2967;DHT22;1493;51.496;7.210;2022-08-21T03:54:16;17.10;99.90
2967;DHT22;1493;51.496;7.210;2022-08-21T03:56:43;17.10;99.90
2967;DHT22;1493;51.496;7.210;2022-08-21T03:59:10;17.00;99.90
2967;DHT22;1493;51.496;7.210;2022-08-21T04:01:37;17.00;99.90
2967;DHT22;1493;51.496;7.210;2022-08-21T04:04:05;17.00;99.90
2967;DHT22;1493;51.496;7.210;2022-08-21T04:06:32;17.00;99.90
2967;DHT22;1493;51.496;7.210;2022-08-21T04:08:59;17.00;99.90
2967;DHT22;1493;51.496;7.210;2022-08-21T04:11:28;16.90;99.90
2967;DHT22;1493;51.496;7.210;2022-08-21T04:13:55;17.00;99.90
2967;DHT22;1493;51.496;7.210;2022-08-21T04:16:22;16.90;99.90
2967;DHT22;1493;51.496;7.210;2022-08-21T04:18:49;16.90;99.90
2967;DHT22;1493;51.496;7.210;2022-08-21T04:21:16;16.90;99.90
2967;DHT22;1493;51.496;7.210;2022-08-21T04:23:43;16.90;99.90
2967;DHT22;1493;51.496;7.210;2022-08-21T04:26:09;16.90;99.90
2967;DHT22;1493;51.496;7.210;2022-08-21T04:28:38;16.90;99.90
2967;DHT22;1493;51.496;7.210;2022-08-21T04:31:05;16.90;99.90
2967;DHT22;1493;51.496;7.210;2022-08-21T04:33:32;16.80;99.90
2967;DHT22;1493;51.496;7.210;2022-08-21T04:35:58;16.80;99.90
2967;DHT22;1493;51.496;7.210;2022-08-21T04:38:26;16.80;99.90
2967;DHT22;1493;51.496;7.210;2022-08-21T04:40:53;16.80;99.90
2967;DHT22;1493;51.496;7.210;2022-08-21T04:43:20;16.70;99.90
2967;DHT22;1493;51.496;7.210;2022-08-21T04:45:51;16.70;99.90
2967;DHT22;1493;51.496;7.210;2022-08-21T04:48:20;16.70;99.90
2967;DHT22;1493;51.496;7.210;2022-08-21T04:50:50;16.70;99.90
2967;DHT22;1493;51.496;7.210;2022-08-21T04:53:21;16.70;99.90
2967;DHT22;1493;51.496;7.210;2022-08-21T04:55:49;16.70;99.90
2967;DHT22;1493;51.496;7.210;2022-08-21T04:58:20;16.70;99.90
2967;DHT22;1493;51.496;7.210;2022-08-21T05:00:52;16.70;99.90
2967;DHT22;1493;51.496;7.210;2022-08-21T05:03:19;16.70;99.90
2967;DHT22;1493;51.496;7.210;2022-08-21T05:05:47;16.70;99.90
2967;DHT22;1493;51.496;7.210;2022-08-21T05:08:17;16.80;99.90
2967;DHT22;1493;51.496;7.210;2022-08-21T05:10:45;16.80;99.90
2967;DHT22;1493;51.496;7.210;2022-08-21T05:13:12;16.80;99.90
2967;DHT22;1493;51.496;7.210;2022-08-21T05:15:40;16.90;99.90
2967;DHT22;1493;51.496;7.210;2022-08-21T05:18:08;16.90;99.90
2967;DHT22;1493;51.496;7.210;2022-08-21T05:20:36;17.00;99.90
2967;DHT22;1493;51.496;7.210;2022-08-21T05:23:07;17.10;99.90
2967;DHT22;1493;51.496;7.210;2022-08-21T05:25:34;17.10;99.90
2967;DHT22;1493;51.496;7.210;2022-08-21T05:28:02;17.10;99.90
2967;DHT22;1493;51.496;7.210;2022-08-21T05:30:28;17.20;99.90
2967;DHT22;1493;51.496;7.210;2022-08-21T05:32:57;17.20;99.90
2967;DHT22;1493;51.496;7.210;2022-08-21T05:35:27;17.30;99.90
2967;DHT22;1493;51.496;7.210;2022-08-21T05:40:23;17.40;99.90
2967;DHT22;1493;51.496;7.210;2022-08-21T05:42:50;17.40;99.90
2967;DHT22;1493;51.496;7.210;2022-08-21T05:45:17;17.40;99.90
2967;DHT22;1493;51.496;7.210;2022-08-21T05:47:45;17.40;99.90
2967;DHT22;1493;51.496;7.210;2022-08-21T05:50:12;17.50;99.90
2967;DHT22;1493;51.496;7.210;2022-08-21T05:52:40;17.50;99.90
2967;DHT22;1493;51.496;7.210;2022-08-21T05:55:07;17.50;99.90
2967;DHT22;1493;51.496;7.210;2022-08-21T05:57:34;17.60;99.90
2967;DHT22;1493;51.496;7.210;2022-08-21T06:00:01;17.60;99.90
2967;DHT22;1493;51.496;7.210;2022-08-21T06:02:28;17.70;99.90
2967;DHT22;1493;51.496;7.210;2022-08-21T06:04:56;17.80;99.90
2967;DHT22;1493;51.496;7.210;2022-08-21T06:07:23;17.90;99.90
2967;DHT22;1493;51.496;7.210;2022-08-21T06:09:51;17.80;99.90
2967;DHT22;1493;51.496;7.210;2022-08-21T06:12:18;17.90;99.90
2967;DHT22;1493;51.496;7.210;2022-08-21T06:14:45;18.00;99.90
2967;DHT22;1493;51.496;7.210;2022-08-21T06:17:12;17.80;99.90
2967;DHT22;1493;51.496;7.210;2022-08-21T06:19:42;17.80;99.90
2967;DHT22;1493;51.496;7.210;2022-08-21T06:22:09;17.90;99.90
2967;DHT22;1493;51.496;7.210;2022-08-21T06:24:36;18.00;99.90
2967;DHT22;1493;51.496;7.210;2022-08-21T06:27:06;18.00;99.90
2967;DHT22;1493;51.496;7.210;2022-08-21T06:29:42;18.00;99.90
2967;DHT22;1493;51.496;7.210;2022-08-21T06:32:14;18.20;99.90
2967;DHT22;1493;51.496;7.210;2022-08-21T06:34:41;18.30;99.90
2967;DHT22;1493;51.496;7.210;2022-08-21T06:37:10;18.40;99.90
2967;DHT22;1493;51.496;7.210;2022-08-21T06:39:37;18.20;99.90
2967;DHT22;1493;51.496;7.210;2022-08-21T06:42:16;18.30;99.90
2967;DHT22;1493;51.496;7.210;2022-08-21T06:44:47;18.40;99.90
2967;DHT22;1493;51.496;7.210;2022-08-21T06:47:14;18.50;99.90
2967;DHT22;1493;51.496;7.210;2022-08-21T06:49:43;18.50;99.90
2967;DHT22;1493;51.496;7.210;2022-08-21T06:52:16;18.60;99.90
2967;DHT22;1493;51.496;7.210;2022-08-21T06:54:43;18.70;99.90
2967;DHT22;1493;51.496;7.210;2022-08-21T06:57:11;18.80;99.90
2967;DHT22;1493;51.496;7.210;2022-08-21T06:59:44;18.90;99.90
2967;DHT22;1493;51.496;7.210;2022-08-21T07:02:10;19.00;99.90
2967;DHT22;1493;51.496;7.210;2022-08-21T07:04:38;19.00;99.90
2967;DHT22;1493;51.496;7.210;2022-08-21T07:07:04;19.10;99.90
2967;DHT22;1493;51.496;7.210;2022-08-21T07:09:33;19.00;99.90
2967;DHT22;1493;51.496;7.210;2022-08-21T07:12:01;19.10;99.90
2967;DHT22;1493;51.496;7.210;2022-08-21T07:14:30;19.10;99.90
2967;DHT22;1493;51.496;7.210;2022-08-21T07:16:57;19.10;99.90
2967;DHT22;1493;51.496;7.210;2022-08-21T07:19:24;19.20;99.90
2967;DHT22;1493;51.496;7.210;2022-08-21T07:21:52;19.20;99.90
2967;DHT22;1493;51.496;7.210;2022-08-21T07:24:19;19.30;99.90
2967;DHT22;1493;51.496;7.210;2022-08-21T07:26:46;19.40;99.90
2967;DHT22;1493;51.496;7.210;2022-08-21T07:29:13;19.40;99.90
2967;DHT22;1493;51.496;7.210;2022-08-21T07:31:41;19.50;99.90
2967;DHT22;1493;51.496;7.210;2022-08-21T07:34:08;19.50;99.90
2967;DHT22;1493;51.496;7.210;2022-08-21T07:36:35;19.60;99.90
2967;DHT22;1493;51.496;7.210;2022-08-21T07:39:02;19.60;99.90
2967;DHT22;1493;51.496;7.210;2022-08-21T07:41:30;19.70;99.90
2967;DHT22;1493;51.496;7.210;2022-08-21T07:43:58;19.70;99.90
2967;DHT22;1493;51.496;7.210;2022-08-21T07:46:26;19.80;99.90
2967;DHT22;1493;51.496;7.210;2022-08-21T07:48:55;19.90;99.90
2967;DHT22;1493;51.496;7.210;2022-08-21T07:51:25;19.80;99.90
2967;DHT22;1493;51.496;7.210;2022-08-21T07:53:55;19.90;99.90
2967;DHT22;1493;51.496;7.210;2022-08-21T07:56:22;20.00;99.90
2967;DHT22;1493;51.496;7.210;2022-08-21T07:58:49;19.90;99.90
2967;DHT22;1493;51.496;7.210;2022-08-21T08:01:16;20.00;99.90
2967;DHT22;1493;51.496;7.210;2022-08-21T08:03:45;20.20;99.90
2967;DHT22;1493;51.496;7.210;2022-08-21T08:06:16;20.20;99.90
2967;DHT22;1493;51.496;7.210;2022-08-21T08:08:44;20.40;99.90
2967;DHT22;1493;51.496;7.210;2022-08-21T08:11:12;20.40;99.90
2967;DHT22;1493;51.496;7.210;2022-08-21T08:13:42;20.40;99.90
2967;DHT22;1493;51.496;7.210;2022-08-21T08:16:10;20.50;99.90
2967;DHT22;1493;51.496;7.210;2022-08-21T08:18:36;20.40;99.90
2967;DHT22;1493;51.496;7.210;2022-08-21T08:21:04;20.40;99.90
2967;DHT22;1493;51.496;7.210;2022-08-21T08:23:33;20.60;99.90
2967;DHT22;1493;51.496;7.210;2022-08-21T08:26:00;20.60;99.90
2967;DHT22;1493;51.496;7.210;2022-08-21T08:28:28;20.50;99.90
2967;DHT22;1493;51.496;7.210;2022-08-21T08:30:55;20.60;99.90
2967;DHT22;1493;51.496;7.210;2022-08-21T08:33:22;20.60;99.90
2967;DHT22;1493;51.496;7.210;2022-08-21T08:35:50;20.70;99.90
2967;DHT22;1493;51.496;7.210;2022-08-21T08:38:20;21.00;99.90
2967;DHT22;1493;51.496;7.210;2022-08-21T08:40:55;21.20;99.90
2967;DHT22;1493;51.496;7.210;2022-08-21T08:43:26;21.40;99.90
2967;DHT22;1493;51.496;7.210;2022-08-21T08:45:56;21.60;99.90
2967;DHT22;1493;51.496;7.210;2022-08-21T08:48:39;21.60;99.90
2967;DHT22;1493;51.496;7.210;2022-08-21T08:51:15;21.90;99.90
2967;DHT22;1493;51.496;7.210;2022-08-21T08:53:49;22.00;99.90
2967;DHT22;1493;51.496;7.210;2022-08-21T08:56:28;22.20;99.90
2967;DHT22;1493;51.496;7.210;2022-08-21T08:59:11;22.20;99.90
2967;DHT22;1493;51.496;7.210;2022-08-21T09:01:52;22.40;99.90
2967;DHT22;1493;51.496;7.210;2022-08-21T09:04:36;22.40;99.90
2967;DHT22;1493;51.496;7.210;2022-08-21T09:07:10;22.40;99.90
2967;DHT22;1493;51.496;7.210;2022-08-21T09:09:50;22.40;99.90
2967;DHT22;1493;51.496;7.210;2022-08-21T09:12:33;22.50;99.90
2967;DHT22;1493;51.496;7.210;2022-08-21T09:15:09;22.60;99.90
2967;DHT22;1493;51.496;7.210;2022-08-21T09:20:43;23.00;99.90
2967;DHT22;1493;51.496;7.210;2022-08-21T09:23:22;23.40;99.90
2967;DHT22;1493;51.496;7.210;2022-08-21T09:26:04;23.60;99.90
2967;DHT22;1493;51.496;7.210;2022-08-21T09:28:35;23.70;99.90
2967;DHT22;1493;51.496;7.210;2022-08-21T09:31:06;23.60;99.90
2967;DHT22;1493;51.496;7.210;2022-08-21T09:33:40;23.70;99.90
2967;DHT22;1493;51.496;7.210;2022-08-21T09:36:07;24.00;99.90
2967;DHT22;1493;51.496;7.210;2022-08-21T09:38:38;24.00;99.90
2967;DHT22;1493;51.496;7.210;2022-08-21T09:41:07;24.00;99.90
2967;DHT22;1493;51.496;7.210;2022-08-21T09:43:38;23.90;99.90
2967;DHT22;1493;51.496;7.210;2022-08-21T09:46:08;23.90;99.90
2967;DHT22;1493;51.496;7.210;2022-08-21T09:48:41;24.10;99.90
2967;DHT22;1493;51.496;7.210;2022-08-21T09:51:11;24.40;99.90
2967;DHT22;1493;51.496;7.210;2022-08-21T09:53:43;24.50;99.90
2967;DHT22;1493;51.496;7.210;2022-08-21T09:56:25;24.70;99.90
2967;DHT22;1493;51.496;7.210;2022-08-21T09:59:18;24.80;99.90
2967;DHT22;1493;51.496;7.210;2022-08-21T10:01:48;25.20;99.90
2967;DHT22;1493;51.496;7.210;2022-08-21T10:04:20;25.50;99.90
2967;DHT22;1493;51.496;7.210;2022-08-21T10:06:48;25.70;99.90
2967;DHT22;1493;51.496;7.210;2022-08-21T10:09:16;25.90;99.90
2967;DHT22;1493;51.496;7.210;2022-08-21T10:11:50;25.80;99.90
2967;DHT22;1493;51.496;7.210;2022-08-21T10:14:29;26.00;99.90
2967;DHT22;1493;51.496;7.210;2022-08-21T10:17:04;26.30;99.90
2967;DHT22;1493;51.496;7.210;2022-08-21T10:19:37;26.40;99.90
2967;DHT22;1493;51.496;7.210;2022-08-21T10:22:17;26.10;99.90
2967;DHT22;1493;51.496;7.210;2022-08-21T10:24:51;26.20;99.90
2967;DHT22;1493;51.496;7.210;2022-08-21T10:27:26;26.10;99.90
2967;DHT22;1493;51.496;7.210;2022-08-21T10:30:03;26.40;99.90
2967;DHT22;1493;51.496;7.210;2022-08-21T10:32:50;26.50;99.90
2967;DHT22;1493;51.496;7.210;2022-08-21T10:35:23;26.60;99.90
2967;DHT22;1493;51.496;7.210;2022-08-21T10:38:05;26.90;99.90
2967;DHT22;1493;51.496;7.210;2022-08-21T10:40:40;27.10;99.90
2967;DHT22;1493;51.496;7.210;2022-08-21T10:43:16;27.20;99.90
2967;DHT22;1493;51.496;7.210;2022-08-21T10:45:55;27.20;99.90
2967;DHT22;1493;51.496;7.210;2022-08-21T10:48:29;26.80;99.90
2967;DHT22;1493;51.496;7.210;2022-08-21T10:51:03;26.70;99.90
2967;DHT22;1493;51.496;7.210;2022-08-21T10:53:50;26.90;99.90
2967;DHT22;1493;51.496;7.210;2022-08-21T10:56:20;27.00;99.90
2967;DHT22;1493;51.496;7.210;2022-08-21T10:58:59;27.50;99.90
2967;DHT22;1493;51.496;7.210;2022-08-21T11:01:31;27.50;99.90
2967;DHT22;1493;51.496;7.210;2022-08-21T11:04:09;27.70;99.90
2967;DHT22;1493;51.496;7.210;2022-08-21T11:06:40;28.00;99.90
2967;DHT22;1493;51.496;7.210;2022-08-21T11:09:12;28.20;99.90
2967;DHT22;1493;51.496;7.210;2022-08-21T11:11:44;28.00;99.90
2967;DHT22;1493;51.496;7.210;2022-08-21T11:14:21;28.10;99.90
2967;DHT22;1493;51.496;7.210;2022-08-21T11:16:58;28.30;99.90
2967;DHT22;1493;51.496;7.210;2022-08-21T11:19:30;28.10;99.90
2967;DHT22;1493;51.496;7.210;2022-08-21T11:22:02;28.20;99.90
2967;DHT22;1493;51.496;7.210;2022-08-21T11:24:37;28.40;99.90
2967;DHT22;1493;51.496;7.210;2022-08-21T11:27:09;28.40;99.90
2967;DHT22;1493;51.496;7.210;2022-08-21T11:29:41;27.90;99.90
2967;DHT22;1493;51.496;7.210;2022-08-21T11:32:29;28.00;99.90
2967;DHT22;1493;51.496;7.210;2022-08-21T11:35:15;28.10;99.90
2967;DHT22;1493;51.496;7.210;2022-08-21T11:38:04;28.40;99.90
2967;DHT22;1493;51.496;7.210;2022-08-21T11:40:49;28.40;99.90
2967;DHT22;1493;51.496;7.210;2022-08-21T11:43:25;28.10;99.90
2967;DHT22;1493;51.496;7.210;2022-08-21T11:46:02;28.10;99.90
2967;DHT22;1493;51.496;7.210;2022-08-21T11:48:45;27.90;99.90
2967;DHT22;1493;51.496;7.210;2022-08-21T11:51:18;28.20;99.90
2967;DHT22;1493;51.496;7.210;2022-08-21T11:53:51;27.90;99.90
2967;DHT22;1493;51.496;7.210;2022-08-21T11:56:24;28.00;99.90
2967;DHT22;1493;51.496;7.210;2022-08-21T11:58:54;28.10;99.90
2967;DHT22;1493;51.496;7.210;2022-08-21T12:01:30;28.30;99.90
2967;DHT22;1493;51.496;7.210;2022-08-21T12:04:03;28.40;99.90
2967;DHT22;1493;51.496;7.210;2022-08-21T12:06:35;28.60;99.90
2967;DHT22;1493;51.496;7.210;2022-08-21T12:09:05;28.30;99.90
2967;DHT22;1493;51.496;7.210;2022-08-21T12:11:46;28.20;99.90
2967;DHT22;1493;51.496;7.210;2022-08-21T12:14:15;27.90;99.90
2967;DHT22;1493;51.496;7.210;2022-08-21T12:16:45;27.50;99.90
2967;DHT22;1493;51.496;7.210;2022-08-21T12:19:28;27.30;99.90
2967;DHT22;1493;51.496;7.210;2022-08-21T12:21:59;27.80;99.90
2967;DHT22;1493;51.496;7.210;2022-08-21T12:24:37;28.40;99.90
2967;DHT22;1493;51.496;7.210;2022-08-21T12:27:26;28.80;99.90
2967;DHT22;1493;51.496;7.210;2022-08-21T12:29:56;29.50;99.90
2967;DHT22;1493;51.496;7.210;2022-08-21T12:32:29;29.90;99.90
2967;DHT22;1493;51.496;7.210;2022-08-21T12:35:16;29.70;99.90
2967;DHT22;1493;51.496;7.210;2022-08-21T12:37:48;29.80;99.90
2967;DHT22;1493;51.496;7.210;2022-08-21T12:40:21;29.80;99.90
2967;DHT22;1493;51.496;7.210;2022-08-21T12:42:51;30.10;99.90
2967;DHT22;1493;51.496;7.210;2022-08-21T12:45:20;30.20;99.90
2967;DHT22;1493;51.496;7.210;2022-08-21T12:47:52;30.10;99.90
2967;DHT22;1493;51.496;7.210;2022-08-21T12:50:31;30.20;99.90
2967;DHT22;1493;51.496;7.210;2022-08-21T12:53:06;30.50;99.90
2967;DHT22;1493;51.496;7.210;2022-08-21T12:55:40;30.70;99.90
2967;DHT22;1493;51.496;7.210;2022-08-21T12:58:16;30.90;99.90
2967;DHT22;1493;51.496;7.210;2022-08-21T13:00:49;31.10;99.90
2967;DHT22;1493;51.496;7.210;2022-08-21T13:03:16;31.00;99.90
2967;DHT22;1493;51.496;7.210;2022-08-21T13:05:44;30.60;99.90
2967;DHT22;1493;51.496;7.210;2022-08-21T13:08:12;30.30;99.90
2967;DHT22;1493;51.496;7.210;2022-08-21T13:10:41;30.30;99.90
2967;DHT22;1493;51.496;7.210;2022-08-21T13:13:11;30.40;99.90
2967;DHT22;1493;51.496;7.210;2022-08-21T13:15:41;30.40;99.90
2967;DHT22;1493;51.496;7.210;2022-08-21T13:18:19;30.00;99.90
2967;DHT22;1493;51.496;7.210;2022-08-21T13:21:03;29.30;99.90
2967;DHT22;1493;51.496;7.210;2022-08-21T13:23:30;29.20;99.90
2967;DHT22;1493;51.496;7.210;2022-08-21T13:25:57;29.60;99.90
2967;DHT22;1493;51.496;7.210;2022-08-21T13:28:32;30.00;99.90
2967;DHT22;1493;51.496;7.210;2022-08-21T13:31:00;29.60;99.90
2967;DHT22;1493;51.496;7.210;2022-08-21T13:33:30;29.60;99.90
2967;DHT22;1493;51.496;7.210;2022-08-21T13:36:03;29.60;99.90
2967;DHT22;1493;51.496;7.210;2022-08-21T13:38:34;29.40;99.90
2967;DHT22;1493;51.496;7.210;2022-08-21T13:41:03;29.50;99.90
2967;DHT22;1493;51.496;7.210;2022-08-21T13:43:33;29.60;99.90
2967;DHT22;1493;51.496;7.210;2022-08-21T13:46:01;29.60;99.90
2967;DHT22;1493;51.496;7.210;2022-08-21T13:48:34;29.30;99.90
2967;DHT22;1493;51.496;7.210;2022-08-21T13:51:03;29.10;99.90
2967;DHT22;1493;51.496;7.210;2022-08-21T13:53:33;28.60;99.90
2967;DHT22;1493;51.496;7.210;2022-08-21T13:56:02;28.30;99.90
2967;DHT22;1493;51.496;7.210;2022-08-21T13:58:31;28.10;99.90
2967;DHT22;1493;51.496;7.210;2022-08-21T14:01:00;28.20;99.90
2967;DHT22;1493;51.496;7.210;2022-08-21T14:03:31;28.60;99.90
2967;DHT22;1493;51.496;7.210;2022-08-21T14:05:59;29.00;99.90
2967;DHT22;1493;51.496;7.210;2022-08-21T14:08:31;29.40;99.90
2967;DHT22;1493;51.496;7.210;2022-08-21T14:11:00;29.40;99.90
2967;DHT22;1493;51.496;7.210;2022-08-21T14:13:34;29.00;99.90
2967;DHT22;1493;51.496;7.210;2022-08-21T14:16:11;28.90;99.90
2967;DHT22;1493;51.496;7.210;2022-08-21T14:18:47;28.50;99.90
2967;DHT22;1493;51.496;7.210;2022-08-21T14:21:37;28.20;99.90
2967;DHT22;1493;51.496;7.210;2022-08-21T14:24:27;28.20;99.90
2967;DHT22;1493;51.496;7.210;2022-08-21T14:26:56;28.00;99.90
2967;DHT22;1493;51.496;7.210;2022-08-21T14:29:35;28.00;99.90
2967;DHT22;1493;51.496;7.210;2022-08-21T14:32:09;27.90;99.90
2967;DHT22;1493;51.496;7.210;2022-08-21T14:34:36;27.50;99.90
2967;DHT22;1493;51.496;7.210;2022-08-21T14:37:03;27.30;99.90
2967;DHT22;1493;51.496;7.210;2022-08-21T14:39:32;27.00;99.90
2967;DHT22;1493;51.496;7.210;2022-08-21T14:41:59;26.80;99.90
2967;DHT22;1493;51.496;7.210;2022-08-21T14:44:26;26.50;99.90
2967;DHT22;1493;51.496;7.210;2022-08-21T14:46:55;26.30;99.90
2967;DHT22;1493;51.496;7.210;2022-08-21T14:49:26;26.20;99.90
2967;DHT22;1493;51.496;7.210;2022-08-21T14:51:53;26.10;99.90
2967;DHT22;1493;51.496;7.210;2022-08-21T14:54:22;26.10;99.90
2967;DHT22;1493;51.496;7.210;2022-08-21T14:56:51;26.10;99.90
2967;DHT22;1493;51.496;7.210;2022-08-21T14:59:18;26.10;99.90
2967;DHT22;1493;51.496;7.210;2022-08-21T15:01:46;26.00;99.90
2967;DHT22;1493;51.496;7.210;2022-08-21T15:04:13;25.90;99.90
2967;DHT22;1493;51.496;7.210;2022-08-21T15:06:41;26.00;99.90
2967;DHT22;1493;51.496;7.210;2022-08-21T15:09:08;26.00;99.90
2967;DHT22;1493;51.496;7.210;2022-08-21T15:11:35;25.90;99.90
2967;DHT22;1493;51.496;7.210;2022-08-21T15:14:06;25.90;99.90
2967;DHT22;1493;51.496;7.210;2022-08-21T15:16:35;26.10;99.90
2967;DHT22;1493;51.496;7.210;2022-08-21T15:19:02;26.00;99.90
2967;DHT22;1493;51.496;7.210;2022-08-21T15:21:29;26.10;99.90
2967;DHT22;1493;51.496;7.210;2022-08-21T15:23:56;26.30;99.90
2967;DHT22;1493;51.496;7.210;2022-08-21T15:26:24;26.40;99.90
2967;DHT22;1493;51.496;7.210;2022-08-21T15:28:51;26.40;99.90
2967;DHT22;1493;51.496;7.210;2022-08-21T15:31:19;26.50;99.90
2967;DHT22;1493;51.496;7.210;2022-08-21T15:33:46;26.50;99.90
2967;DHT22;1493;51.496;7.210;2022-08-21T15:36:13;26.60;99.90
2967;DHT22;1493;51.496;7.210;2022-08-21T15:38:40;26.60;99.90
2967;DHT22;1493;51.496;7.210;2022-08-21T15:41:07;26.50;99.90
2967;DHT22;1493;51.496;7.210;2022-08-21T15:43:38;26.30;99.90
2967;DHT22;1493;51.496;7.210;2022-08-21T15:46:10;26.30;99.90
2967;DHT22;1493;51.496;7.210;2022-08-21T15:48:39;26.50;99.90
2967;DHT22;1493;51.496;7.210;2022-08-21T15:51:06;26.50;99.90
2967;DHT22;1493;51.496;7.210;2022-08-21T15:53:33;26.50;99.90
2967;DHT22;1493;51.496;7.210;2022-08-21T15:56:04;26.20;99.90
2967;DHT22;1493;51.496;7.210;2022-08-21T15:58:31;26.10;99.90
2967;DHT22;1493;51.496;7.210;2022-08-21T16:00:59;26.10;99.90
2967;DHT22;1493;51.496;7.210;2022-08-21T16:03:26;26.00;99.90
2967;DHT22;1493;51.496;7.210;2022-08-21T16:05:55;26.00;99.90
2967;DHT22;1493;51.496;7.210;2022-08-21T16:08:23;26.00;99.90
2967;DHT22;1493;51.496;7.210;2022-08-21T16:10:51;25.90;99.90
2967;DHT22;1493;51.496;7.210;2022-08-21T16:13:21;25.70;99.90
2967;DHT22;1493;51.496;7.210;2022-08-21T16:15:50;25.70;99.90
2967;DHT22;1493;51.496;7.210;2022-08-21T16:18:17;25.70;99.90
2967;DHT22;1493;51.496;7.210;2022-08-21T16:20:45;25.60;99.90
2967;DHT22;1493;51.496;7.210;2022-08-21T16:23:13;25.50;99.90
2967;DHT22;1493;51.496;7.210;2022-08-21T16:25:40;25.50;99.90